createdAt,value
2023-05-02T00:00:10.420Z,19.2154
2023-05-02T00:01:11.821Z,18.8462
2023-05-02T00:02:13.231Z,19.2000
2023-05-02T00:03:14.666Z,19.2923
2023-05-02T00:04:16.137Z,19.3538
2023-05-02T00:05:17.457Z,18.4154
2023-05-02T00:06:18.948Z,19.4308
2023-05-02T00:07:20.349Z,19.2462
2023-05-02T00:08:21.718Z,19.5231
2023-05-02T00:09:23.290Z,19.0462
2023-05-02T00:10:24.643Z,19.0769
2023-05-02T00:11:26.143Z,19.6000
2023-05-02T00:12:27.402Z,19.4000
2023-05-02T00:13:28.913Z,19.1385
2023-05-02T00:14:30.309Z,19.3692
2023-05-02T00:15:31.780Z,19.3538
2023-05-02T00:16:33.302Z,18.8615
2023-05-02T00:17:34.690Z,19.0154
2023-05-02T00:18:36.025Z,19.7231
2023-05-02T00:19:37.447Z,19.6154
2023-05-02T00:20:38.966Z,19.4923
2023-05-02T00:21:40.326Z,18.8462
2023-05-02T00:22:41.672Z,18.7846
2023-05-02T00:23:43.118Z,18.9385
2023-05-02T00:24:44.518Z,18.7231
2023-05-02T00:25:46.007Z,18.9077
2023-05-02T00:26:47.463Z,18.9846
2023-05-02T00:27:48.797Z,19.4308
2023-05-02T00:28:50.145Z,19.1538
2023-05-02T00:29:51.671Z,19.3077
2023-05-02T00:30:53.090Z,19.2769
2023-05-02T00:31:54.569Z,19.4308
2023-05-02T00:32:55.973Z,19.3385
2023-05-02T00:33:57.390Z,19.3692
2023-05-02T00:34:58.766Z,19.2769
2023-05-02T00:36:00.210Z,19.1538
2023-05-02T00:37:01.600Z,19.0769
2023-05-02T00:38:03.102Z,19.2308
2023-05-02T00:39:04.409Z,19.1385
2023-05-02T00:40:05.889Z,19.4769
2023-05-02T00:41:07.237Z,19.3692
2023-05-02T00:42:08.694Z,19.2615
2023-05-02T00:43:10.098Z,19.6308
2023-05-02T00:44:11.537Z,19.5077
2023-05-02T00:45:12.920Z,19.4308
2023-05-02T00:46:14.374Z,19.4615
2023-05-02T00:47:15.793Z,19.7077
2023-05-02T00:48:17.205Z,19.3385
2023-05-02T00:49:18.541Z,19.4769
2023-05-02T00:50:20.036Z,19.1385
2023-05-02T00:51:21.418Z,19.1692
2023-05-02T00:52:22.931Z,19.2000
2023-05-02T00:53:24.264Z,19.1385
2023-05-02T00:54:25.726Z,18.9846
2023-05-02T00:55:27.103Z,19.1692
2023-05-02T00:56:28.545Z,19.3846
2023-05-02T00:57:30.006Z,19.0154
2023-05-02T00:58:31.418Z,19.5077
2023-05-02T00:59:32.798Z,19.1846
2023-05-02T01:00:34.246Z,18.9231
2023-05-02T01:01:35.576Z,19.3385
2023-05-02T01:02:37.279Z,19.3385
2023-05-02T01:03:38.590Z,19.3077
2023-05-02T01:04:39.980Z,19.2923
2023-05-02T01:05:41.329Z,19.4769
2023-05-02T01:06:42.898Z,19.1538
2023-05-02T01:07:44.179Z,19.3692
2023-05-02T01:08:45.600Z,19.1077
2023-05-02T01:09:46.991Z,19.1385
2023-05-02T01:10:48.416Z,19.3077
2023-05-02T01:11:49.820Z,19.3231
2023-05-02T01:12:51.307Z,19.3692
2023-05-02T01:13:52.662Z,19.0154
2023-05-02T01:14:54.134Z,19.2769
2023-05-02T01:15:55.506Z,19.0923
2023-05-02T01:16:56.996Z,19.5538
2023-05-02T01:17:58.499Z,19.3077
2023-05-02T01:18:59.818Z,19.2000
2023-05-02T01:20:01.331Z,19.5385
2023-05-02T01:21:02.657Z,19.1385
2023-05-02T01:22:04.066Z,19.0923
2023-05-02T01:23:05.456Z,19.0615
2023-05-02T01:24:06.863Z,18.9538
2023-05-02T01:25:08.178Z,19.3231
2023-05-02T01:26:09.715Z,19.0615
2023-05-02T01:27:11.105Z,19.0000
2023-05-02T01:28:12.595Z,19.0154
2023-05-02T01:29:13.859Z,19.0462
2023-05-02T01:30:15.400Z,19.0923
2023-05-02T01:31:16.826Z,19.1231
2023-05-02T01:32:18.250Z,19.2154
2023-05-02T01:33:19.684Z,19.0462
2023-05-02T01:34:21.091Z,19.2308
2023-05-02T01:35:22.402Z,19.5692
2023-05-02T01:36:23.943Z,19.1385
2023-05-02T01:37:25.328Z,19.3538
2023-05-02T01:38:26.842Z,18.9385
2023-05-02T01:39:28.122Z,19.2462
2023-05-02T01:40:29.585Z,19.1077
2023-05-02T01:41:30.974Z,19.2769
2023-05-02T01:42:32.423Z,19.1692
2023-05-02T01:43:33.834Z,18.9077
2023-05-02T01:44:35.260Z,18.9538
2023-05-02T01:45:36.621Z,18.7231
2023-05-02T01:46:38.176Z,18.8000
2023-05-02T01:47:39.509Z,18.7846
2023-05-02T01:48:40.975Z,19.3231
2023-05-02T01:49:42.342Z,18.8769
2023-05-02T01:50:43.800Z,18.8308
2023-05-02T01:51:45.117Z,18.9692
2023-05-02T01:52:46.641Z,18.8462
2023-05-02T01:53:48.094Z,19.2923
2023-05-02T01:54:49.469Z,18.6923
2023-05-02T01:55:50.844Z,18.9846
2023-05-02T01:56:52.310Z,19.1692
2023-05-02T01:57:53.693Z,19.2000
2023-05-02T01:58:55.190Z,19.0923
2023-05-02T01:59:56.580Z,18.5538
2023-05-02T02:00:58.022Z,18.7077
2023-05-02T02:01:59.362Z,18.8000
2023-05-02T02:03:00.808Z,18.9385
2023-05-02T02:04:02.339Z,18.9385
2023-05-02T02:05:03.699Z,19.0154
2023-05-02T02:06:05.127Z,17.9692
2023-05-02T02:07:06.650Z,18.9385
2023-05-02T02:08:07.948Z,18.9538
2023-05-02T02:09:09.462Z,19.1692
2023-05-02T02:10:10.788Z,19.8462
2023-05-02T02:11:12.235Z,20.1231
2023-05-02T02:12:13.652Z,20.5385
2023-05-02T02:13:15.147Z,20.2462
2023-05-02T02:14:16.499Z,19.9846
2023-05-02T02:15:17.968Z,19.9077
2023-05-02T02:16:19.400Z,19.5077
2023-05-02T02:17:20.762Z,19.2923
2023-05-02T02:18:22.159Z,19.8615
2023-05-02T02:19:23.664Z,19.8615
2023-05-02T02:20:25.068Z,20.2154
2023-05-02T02:21:26.434Z,19.4923
2023-05-02T02:22:27.852Z,19.5077
2023-05-02T02:23:29.341Z,19.9538
2023-05-02T02:24:30.738Z,19.7077
2023-05-02T02:25:32.173Z,19.5846
2023-05-02T02:26:33.530Z,19.5077
2023-05-02T02:27:34.986Z,19.6308
2023-05-02T02:28:36.431Z,19.6154
2023-05-02T02:29:37.875Z,19.8923
2023-05-02T02:30:39.379Z,19.2000
2023-05-02T02:31:40.657Z,19.2154
2023-05-02T02:32:42.146Z,19.6462
2023-05-02T02:33:43.496Z,19.8462
2023-05-02T02:34:45.056Z,19.9077
2023-05-02T02:35:46.389Z,20.0615
2023-05-02T02:36:47.804Z,19.6308
2023-05-02T02:37:49.185Z,19.5385
2023-05-02T02:38:50.652Z,19.2615
2023-05-02T02:39:52.107Z,18.8769
2023-05-02T02:40:53.514Z,18.9846
2023-05-02T02:41:54.902Z,19.4154
2023-05-02T02:42:56.338Z,19.1538
2023-05-02T02:43:57.805Z,19.4769
2023-05-02T02:44:59.174Z,19.2923
2023-05-02T02:46:00.729Z,18.6000
2023-05-02T02:47:02.000Z,18.8615
2023-05-02T02:48:03.492Z,19.0154
2023-05-02T02:49:04.872Z,19.3846
2023-05-02T02:50:06.365Z,19.9231
2023-05-02T02:51:07.772Z,20.2154
2023-05-02T02:52:09.135Z,19.1385
2023-05-02T02:53:10.511Z,18.9538
2023-05-02T02:54:25.411Z,19.4615
2023-05-02T02:55:13.423Z,19.5000
2023-05-02T02:56:14.899Z,19.5385
2023-05-02T02:57:16.224Z,19.1846
2023-05-02T02:58:17.626Z,18.4923
2023-05-02T02:59:19.067Z,18.3538
2023-05-02T03:00:20.604Z,18.3231
2023-05-02T03:01:21.975Z,18.8769
2023-05-02T03:02:23.386Z,18.9231
2023-05-02T03:03:24.872Z,18.9231
2023-05-02T03:04:26.186Z,18.7538
2023-05-02T03:05:27.679Z,19.6769
2023-05-02T03:06:29.187Z,19.3231
2023-05-02T03:07:30.493Z,19.1692
2023-05-02T03:08:31.905Z,18.8308
2023-05-02T03:09:33.316Z,18.5692
2023-05-02T03:10:34.868Z,19.0000
2023-05-02T03:11:36.192Z,18.8923
2023-05-02T03:12:37.653Z,18.9077
2023-05-02T03:13:39.003Z,19.1846
2023-05-02T03:14:40.508Z,19.4462
2023-05-02T03:15:41.919Z,19.5231
2023-05-02T03:16:43.420Z,19.0000
2023-05-02T03:17:44.821Z,18.9692
2023-05-02T03:18:46.229Z,19.1077
2023-05-02T03:19:47.584Z,19.1538
2023-05-02T03:20:48.959Z,19.2615
2023-05-02T03:21:50.504Z,19.1538
2023-05-02T03:22:51.896Z,19.1538
2023-05-02T03:23:53.264Z,19.2923
2023-05-02T03:24:54.687Z,19.1231
2023-05-02T03:25:56.072Z,19.1846
2023-05-02T03:26:57.568Z,19.2769
2023-05-02T03:27:58.953Z,19.4154
2023-05-02T03:29:00.364Z,19.0769
2023-05-02T03:30:02.084Z,19.3077
2023-05-02T03:31:03.260Z,19.4154
2023-05-02T03:32:04.750Z,19.3538
2023-05-02T03:33:06.100Z,19.4000
2023-05-02T03:34:07.513Z,19.0923
2023-05-02T03:35:08.913Z,19.1692
2023-05-02T03:36:10.338Z,19.0769
2023-05-02T03:37:11.759Z,18.9231
2023-05-02T03:38:13.287Z,19.0154
2023-05-02T03:39:14.594Z,18.9846
2023-05-02T03:40:16.052Z,19.3846
2023-05-02T03:41:17.346Z,19.1538
2023-05-02T03:42:18.910Z,19.0769
2023-05-02T03:43:20.332Z,19.2462
2023-05-02T03:44:21.781Z,19.3692
2023-05-02T03:45:23.152Z,19.3077
2023-05-02T03:46:24.617Z,19.2769
2023-05-02T03:47:26.032Z,19.1538
2023-05-02T03:48:27.496Z,18.9077
2023-05-02T03:49:28.805Z,19.3538
2023-05-02T03:50:30.294Z,19.1231
2023-05-02T03:51:31.604Z,19.0769
2023-05-02T03:52:33.125Z,19.0615
2023-05-02T03:53:34.562Z,19.0000
2023-05-02T03:54:36.040Z,19.2154
2023-05-02T03:55:37.405Z,19.2462
2023-05-02T03:56:40.202Z,19.3231
2023-05-02T03:57:40.259Z,19.4769
2023-05-02T03:58:41.721Z,19.4000
2023-05-02T03:59:43.160Z,19.5385
2023-05-02T04:00:44.552Z,19.3077
2023-05-02T04:01:45.969Z,19.2462
2023-05-02T04:02:47.495Z,19.0462
2023-05-02T04:03:48.900Z,19.4615
2023-05-02T04:04:50.287Z,18.9846
2023-05-02T04:05:51.676Z,19.2769
2023-05-02T04:06:53.185Z,19.2923
2023-05-02T04:07:54.469Z,19.3077
2023-05-02T04:08:56.001Z,19.0923
2023-05-02T04:09:57.439Z,19.1692
2023-05-02T04:10:58.748Z,19.5385
2023-05-02T04:12:00.256Z,19.0462
2023-05-02T04:13:01.716Z,19.3538
2023-05-02T04:14:03.164Z,19.1077
2023-05-02T04:15:04.615Z,18.9692
2023-05-02T04:16:05.982Z,19.0308
2023-05-02T04:17:07.543Z,18.9846
2023-05-02T04:18:08.891Z,18.9692
2023-05-02T04:19:10.829Z,19.0000
2023-05-02T04:20:11.696Z,19.2000
2023-05-02T04:21:13.073Z,18.9692
2023-05-02T04:22:14.478Z,19.2923
2023-05-02T04:23:15.922Z,19.1231
2023-05-02T04:24:17.389Z,19.4462
2023-05-02T04:25:18.867Z,19.0462
2023-05-02T04:26:20.108Z,18.5692
2023-05-02T04:27:21.622Z,18.9692
2023-05-02T04:28:23.113Z,19.0308
2023-05-02T04:29:24.506Z,19.5846
2023-05-02T04:30:25.932Z,19.9385
2023-05-02T04:31:27.406Z,19.2154
2023-05-02T04:32:28.802Z,19.9692
2023-05-02T04:33:30.120Z,20.2000
2023-05-02T04:34:31.591Z,20.6923
2023-05-02T04:35:32.987Z,20.9692
2023-05-02T04:36:34.390Z,20.2615
2023-05-02T04:37:35.783Z,20.4615
2023-05-02T04:38:37.224Z,20.0462
2023-05-02T04:39:38.613Z,20.5077
2023-05-02T04:40:40.120Z,20.4923
2023-05-02T04:41:41.486Z,20.0923
2023-05-02T04:42:42.925Z,19.4615
2023-05-02T04:43:44.358Z,19.9846
2023-05-02T04:44:45.814Z,19.5538
2023-05-02T04:45:47.112Z,19.5538
2023-05-02T04:46:48.613Z,19.8923
2023-05-02T04:47:50.028Z,20.0000
2023-05-02T04:48:51.472Z,19.8923
2023-05-02T04:49:52.875Z,19.8308
2023-05-02T04:50:54.403Z,19.6000
2023-05-02T04:51:55.733Z,19.2769
2023-05-02T04:52:57.121Z,18.7846
2023-05-02T04:53:58.523Z,19.1538
2023-05-02T04:55:00.001Z,19.8462
2023-05-02T04:56:01.351Z,19.6769
2023-05-02T04:57:02.792Z,19.5692
2023-05-02T04:58:04.173Z,19.5385
2023-05-02T04:59:05.617Z,19.6923
2023-05-02T05:00:07.042Z,19.3077
2023-05-02T05:01:08.557Z,19.2000
2023-05-02T05:02:09.991Z,19.1692
2023-05-02T05:03:11.383Z,19.5077
2023-05-02T05:04:12.810Z,19.5385
2023-05-02T05:05:14.215Z,17.4769
2023-05-02T05:06:15.676Z,15.5846
2023-05-02T05:07:17.003Z,13.6000
2023-05-02T05:08:18.366Z,11.2615
2023-05-02T05:09:19.881Z,8.9385
2023-05-02T05:10:21.203Z,6.8615
2023-05-02T05:11:23.375Z,5.5385
2023-05-02T05:12:24.095Z,7.2462
2023-05-02T05:13:25.479Z,9.9538
2023-05-02T05:14:26.902Z,12.2000
2023-05-02T05:15:28.322Z,13.3385
2023-05-02T05:16:29.841Z,13.1538
2023-05-02T05:17:31.240Z,12.8154
2023-05-02T05:18:32.589Z,12.2308
2023-05-02T05:19:34.010Z,12.3846
2023-05-02T05:20:35.480Z,12.8769
2023-05-02T05:21:36.892Z,12.8462
2023-05-02T05:22:38.284Z,13.3692
2023-05-02T05:23:39.630Z,13.4154
2023-05-02T05:24:41.080Z,14.0769
2023-05-02T05:25:44.249Z,14.8308
2023-05-02T05:26:43.949Z,15.0000
2023-05-02T05:27:45.355Z,14.8769
2023-05-02T05:28:46.759Z,14.7846
2023-05-02T05:29:48.072Z,15.4769
2023-05-02T05:30:49.621Z,16.2615
2023-05-02T05:31:51.074Z,16.4000
2023-05-02T05:32:52.437Z,15.9846
2023-05-02T05:33:53.883Z,16.0923
2023-05-02T05:34:55.281Z,15.9385
2023-05-02T05:35:56.712Z,15.5385
2023-05-02T05:36:58.104Z,15.6154
2023-05-02T05:37:59.564Z,15.3538
2023-05-02T05:39:00.921Z,15.0000
2023-05-02T05:40:02.899Z,14.6769
2023-05-02T05:41:03.759Z,14.5231
2023-05-02T05:42:05.264Z,15.0462
2023-05-02T05:43:06.688Z,14.9692
2023-05-02T05:44:08.077Z,14.8923
2023-05-02T05:45:09.445Z,14.5846
2023-05-02T05:46:10.881Z,14.7077
2023-05-02T05:47:12.490Z,15.3538
2023-05-02T05:48:13.846Z,15.5385
2023-05-02T05:49:15.144Z,15.6308
2023-05-02T05:50:16.623Z,15.5077
2023-05-02T05:51:17.989Z,15.5692
2023-05-02T05:52:19.525Z,15.6308
2023-05-02T05:53:20.896Z,15.1692
2023-05-02T05:54:22.298Z,15.0000
2023-05-02T05:55:23.656Z,15.1231
2023-05-02T05:56:25.100Z,15.6154
2023-05-02T05:57:26.529Z,15.3692
2023-05-02T05:58:27.979Z,15.5692
2023-05-02T05:59:29.328Z,16.1692
2023-05-02T06:00:30.777Z,16.2462
2023-05-02T06:01:32.156Z,16.2462
2023-05-02T06:02:33.734Z,16.0923
2023-05-02T06:03:35.222Z,16.3385
2023-05-02T06:04:36.527Z,16.2615
2023-05-02T06:05:37.851Z,16.0000
2023-05-02T06:06:39.361Z,15.9692
2023-05-02T06:07:40.725Z,16.1692
2023-05-02T06:08:42.160Z,16.1538
2023-05-02T06:09:43.597Z,16.1231
2023-05-02T06:10:44.986Z,16.3231
2023-05-02T06:11:46.303Z,16.5231
2023-05-02T06:12:49.255Z,16.2769
2023-05-02T06:13:49.272Z,16.6154
2023-05-02T06:14:50.705Z,16.6308
2023-05-02T06:15:52.061Z,16.8769
2023-05-02T06:16:53.468Z,17.0308
2023-05-02T06:17:55.009Z,17.1231
2023-05-02T06:18:56.364Z,17.2308
2023-05-02T06:19:58.081Z,17.4308
2023-05-02T06:20:59.118Z,17.6308
2023-05-02T06:22:00.602Z,17.6308
2023-05-02T06:23:02.059Z,17.7077
2023-05-02T06:24:03.504Z,17.6923
2023-05-02T06:25:04.900Z,17.5385
2023-05-02T06:26:06.307Z,17.5538
2023-05-02T06:27:07.723Z,17.4769
2023-05-02T06:28:09.135Z,17.6154
2023-05-02T06:29:10.601Z,17.4615
2023-05-02T06:30:11.921Z,17.8923
2023-05-02T06:31:13.477Z,17.7692
2023-05-02T06:32:14.769Z,17.8769
2023-05-02T06:33:16.293Z,18.1231
2023-05-02T06:34:17.689Z,17.9846
2023-05-02T06:35:19.094Z,18.1077
2023-05-02T06:36:20.472Z,18.0154
2023-05-02T06:37:21.864Z,17.9692
2023-05-02T06:38:23.368Z,18.0154
2023-05-02T06:39:24.766Z,18.3538
2023-05-02T06:40:26.205Z,18.5077
2023-05-02T06:41:27.612Z,18.4615
2023-05-02T06:42:29.045Z,18.5231
2023-05-02T06:43:30.480Z,18.2615
2023-05-02T06:44:31.910Z,19.0154
2023-05-02T06:45:33.265Z,18.0615
2023-05-02T06:46:34.769Z,18.1846
2023-05-02T06:47:36.163Z,17.6308
2023-05-02T06:48:37.593Z,17.7846
2023-05-02T06:49:39.025Z,17.7692
2023-05-02T06:50:40.448Z,18.1538
2023-05-02T06:51:41.817Z,18.8154
2023-05-02T06:52:43.252Z,17.7846
2023-05-02T06:53:44.686Z,18.4462
2023-05-02T06:54:46.212Z,19.3231
2023-05-02T06:55:47.509Z,18.6923
2023-05-02T06:56:48.874Z,18.6615
2023-05-02T06:57:50.372Z,18.4154
2023-05-02T06:58:51.848Z,19.0769
2023-05-02T06:59:53.555Z,18.5077
2023-05-02T07:00:54.742Z,18.6000
2023-05-02T07:01:56.038Z,16.9231
2023-05-02T07:02:57.574Z,17.0615
2023-05-02T07:03:58.927Z,17.0769
2023-05-02T07:05:00.334Z,16.8923
2023-05-02T07:06:01.715Z,17.2462
2023-05-02T07:07:03.144Z,18.0000
2023-05-02T07:08:04.530Z,17.8769
2023-05-02T07:09:06.026Z,17.1077
2023-05-02T07:10:07.398Z,16.9385
2023-05-02T07:11:08.872Z,17.0923
2023-05-02T07:12:10.213Z,16.9077
2023-05-02T07:13:11.688Z,17.1846
2023-05-02T07:14:13.026Z,17.3077
2023-05-02T07:15:14.550Z,18.0154
2023-05-02T07:16:15.864Z,17.1538
2023-05-02T07:17:17.359Z,18.2000
2023-05-02T07:18:18.830Z,18.5538
2023-05-02T07:19:20.250Z,18.4769
2023-05-02T07:20:21.698Z,17.8462
2023-05-02T07:21:23.052Z,17.0154
2023-05-02T07:22:24.470Z,16.5538
2023-05-02T07:23:25.845Z,16.9846
2023-05-02T07:24:27.307Z,16.9538
2023-05-02T07:25:28.735Z,17.1077
2023-05-02T07:26:30.173Z,16.9077
2023-05-02T07:27:31.560Z,16.8923
2023-05-02T07:28:33.001Z,17.1692
2023-05-02T07:29:34.412Z,17.2769
2023-05-02T07:30:35.857Z,17.9846
2023-05-02T07:31:37.237Z,17.4308
2023-05-02T07:32:38.681Z,17.1385
2023-05-02T07:33:40.047Z,17.2308
2023-05-02T07:34:41.406Z,17.2923
2023-05-02T07:35:42.980Z,17.5077
2023-05-02T07:36:44.364Z,17.9385
2023-05-02T07:37:45.713Z,17.7846
2023-05-02T07:38:47.199Z,18.4462
2023-05-02T07:39:48.553Z,17.8000
2023-05-02T07:40:50.053Z,17.2462
2023-05-02T07:41:51.456Z,17.0000
2023-05-02T07:42:52.849Z,16.7538
2023-05-02T07:43:54.234Z,17.0769
2023-05-02T07:44:55.689Z,17.2308
2023-05-02T07:45:57.172Z,17.3538
2023-05-02T07:46:58.584Z,17.5385
2023-05-02T07:47:59.957Z,17.1692
2023-05-02T07:49:01.379Z,17.4462
2023-05-02T07:50:03.006Z,17.3231
2023-05-02T07:51:04.289Z,16.9077
2023-05-02T07:52:05.693Z,17.0462
2023-05-02T07:53:07.077Z,17.0000
2023-05-02T07:54:08.480Z,16.6462
2023-05-02T07:55:09.944Z,16.9846
2023-05-02T07:56:11.388Z,17.3692
2023-05-02T07:57:12.807Z,17.2000
2023-05-02T07:58:14.193Z,17.8308
2023-05-02T07:59:15.610Z,16.8923
2023-05-02T08:00:17.017Z,17.2462
2023-05-02T08:01:18.543Z,17.2615
2023-05-02T08:02:20.034Z,17.2308
2023-05-02T08:03:21.451Z,17.2000
2023-05-02T08:04:22.896Z,17.2769
2023-05-02T08:05:24.165Z,17.3846
2023-05-02T08:06:25.689Z,17.5077
2023-05-02T08:07:27.046Z,17.2154
2023-05-02T08:08:28.373Z,17.5385
2023-05-02T08:09:29.845Z,17.5385
2023-05-02T08:10:31.257Z,17.9692
2023-05-02T08:11:32.677Z,17.4923
2023-05-02T08:12:34.180Z,17.6615
2023-05-02T08:13:35.640Z,17.5846
2023-05-02T08:14:36.912Z,17.3231
2023-05-02T08:15:38.585Z,17.5231
2023-05-02T08:16:40.040Z,17.4462
2023-05-02T08:17:41.355Z,17.5231
2023-05-02T08:18:42.674Z,17.5385
2023-05-02T08:19:44.065Z,17.6000
2023-05-02T08:20:45.514Z,17.5077
2023-05-02T08:21:46.960Z,17.1846
2023-05-02T08:22:48.397Z,17.2308
2023-05-02T08:23:49.799Z,17.4308
2023-05-02T08:24:51.175Z,17.6615
2023-05-02T08:25:52.616Z,17.6154
2023-05-02T08:26:54.074Z,17.7385
2023-05-02T08:27:55.493Z,17.7692
2023-05-02T08:28:56.917Z,17.8462
2023-05-02T08:30:00.658Z,18.5077
2023-05-02T08:30:59.697Z,15.5231
2023-05-02T08:32:01.280Z,16.5385
2023-05-02T08:33:02.618Z,17.0000
2023-05-02T08:34:04.009Z,18.6462
2023-05-02T08:35:05.424Z,18.1231
2023-05-02T08:36:06.852Z,17.5538
2023-05-02T08:37:08.299Z,17.3846
2023-05-02T08:38:09.732Z,17.1385
2023-05-02T08:39:11.093Z,17.3846
2023-05-02T08:40:12.550Z,17.2000
2023-05-02T08:41:13.958Z,17.2923
2023-05-02T08:42:15.359Z,17.4154
2023-05-02T08:43:16.797Z,17.2462
2023-05-02T08:44:18.207Z,17.3077
2023-05-02T08:45:19.555Z,17.4923
2023-05-02T08:46:21.011Z,17.5846
2023-05-02T08:47:22.617Z,18.2000
2023-05-02T08:48:23.953Z,17.8000
2023-05-02T08:49:25.323Z,17.8923
2023-05-02T08:50:26.772Z,18.2154
2023-05-02T08:51:28.088Z,17.2308
2023-05-02T08:52:29.506Z,16.5538
2023-05-02T08:53:31.027Z,17.5077
2023-05-02T08:54:32.422Z,15.7692
2023-05-02T08:55:33.748Z,16.0308
2023-05-02T08:56:35.205Z,16.5692
2023-05-02T08:57:36.668Z,16.4154
2023-05-02T08:58:38.154Z,17.0462
2023-05-02T08:59:39.546Z,16.7077
2023-05-02T09:00:40.991Z,16.8000
2023-05-02T09:01:42.371Z,17.3846
2023-05-02T09:02:43.865Z,17.5846
2023-05-02T09:03:45.205Z,17.6000
2023-05-02T09:04:46.769Z,17.7538
2023-05-02T09:05:47.999Z,17.8769
2023-05-02T09:06:49.499Z,17.8462
2023-05-02T09:07:50.832Z,17.7538
2023-05-02T09:08:52.276Z,17.9538
2023-05-02T09:09:53.729Z,17.8769
2023-05-02T09:10:55.213Z,17.9846
2023-05-02T09:11:56.475Z,17.9846
2023-05-02T09:12:57.981Z,18.1231
2023-05-02T09:13:59.388Z,17.8923
2023-05-02T09:15:01.033Z,18.4308
2023-05-02T09:16:02.208Z,18.7077
2023-05-02T09:17:03.844Z,18.4462
2023-05-02T09:18:05.151Z,18.3231
2023-05-02T09:19:06.497Z,18.2000
2023-05-02T09:20:07.913Z,18.2769
2023-05-02T09:21:09.379Z,18.4000
2023-05-02T09:22:10.791Z,18.2615
2023-05-02T09:23:12.249Z,18.4462
2023-05-02T09:24:13.677Z,18.6000
2023-05-02T09:25:15.098Z,18.7692
2023-05-02T09:26:16.464Z,18.7692
2023-05-02T09:27:17.900Z,18.9231
2023-05-02T09:28:19.270Z,18.9385
2023-05-02T09:29:20.714Z,19.0462
2023-05-02T09:30:22.235Z,18.6769
2023-05-02T09:32:24.987Z,18.8154
2023-05-02T09:33:26.467Z,18.8923
2023-05-02T09:34:27.825Z,18.6000
2023-05-02T09:35:29.326Z,18.6154
2023-05-02T09:36:30.727Z,18.6769
2023-05-02T09:37:32.182Z,18.4769
2023-05-02T09:38:33.529Z,18.6769
2023-05-02T09:39:34.973Z,18.8462
2023-05-02T09:40:36.399Z,19.1692
2023-05-02T09:41:37.858Z,19.2615
2023-05-02T09:42:39.230Z,19.2923
2023-05-02T09:43:40.683Z,19.1077
2023-05-02T09:44:42.061Z,19.0000
2023-05-02T09:45:43.592Z,19.0769
2023-05-02T09:46:45.034Z,19.0615
2023-05-02T09:47:46.361Z,19.0615
2023-05-02T09:48:47.776Z,19.0154
2023-05-02T09:49:49.241Z,19.2615
2023-05-02T09:50:50.691Z,19.4154
2023-05-02T09:51:52.153Z,19.6154
2023-05-02T09:52:53.499Z,19.4462
2023-05-02T09:53:54.984Z,19.3846
2023-05-02T09:54:56.363Z,19.2308
2023-05-02T09:55:57.840Z,19.4000
2023-05-02T09:56:59.225Z,19.2923
2023-05-02T09:58:00.594Z,19.2000
2023-05-02T09:59:02.050Z,19.6000
2023-05-02T10:00:03.756Z,19.5846
2023-05-02T10:01:05.002Z,19.4308
2023-05-02T10:02:06.323Z,19.6000
2023-05-02T10:03:07.823Z,19.6462
2023-05-02T10:04:09.658Z,19.9385
2023-05-02T10:05:10.615Z,19.7385
2023-05-02T10:06:12.158Z,19.4000
2023-05-02T10:07:13.568Z,19.4769
2023-05-02T10:08:14.902Z,19.2923
2023-05-02T10:09:19.783Z,19.2923
2023-05-02T10:10:17.707Z,19.3167
2023-05-02T10:11:19.242Z,19.2923
2023-05-02T10:12:20.570Z,19.3538
2023-05-02T10:13:21.988Z,19.4000
2023-05-02T10:14:23.402Z,19.5385
2023-05-02T10:15:24.820Z,19.5231
2023-05-02T10:16:26.282Z,19.3538
2023-05-02T10:17:27.730Z,19.2000
2023-05-02T10:18:29.097Z,19.2615
2023-05-02T10:19:30.492Z,19.5846
2023-05-02T10:20:31.970Z,19.4462
2023-05-02T10:21:33.429Z,19.7692
2023-05-02T10:22:34.835Z,19.6462
2023-05-02T10:23:36.142Z,19.5692
2023-05-02T10:24:37.645Z,19.4769
2023-05-02T10:25:39.050Z,19.6154
2023-05-02T10:26:40.474Z,19.7077
2023-05-02T10:27:41.876Z,20.7231
2023-05-02T10:28:43.407Z,19.4462
2023-05-02T10:29:44.701Z,19.8000
2023-05-02T10:30:46.134Z,19.7538
2023-05-02T10:31:47.603Z,19.4154
2023-05-02T10:32:49.053Z,19.8462
2023-05-02T10:33:50.424Z,19.9385
2023-05-02T10:34:51.831Z,19.6769
2023-05-02T10:35:53.240Z,19.7538
2023-05-02T10:36:54.675Z,19.5231
2023-05-02T10:37:56.105Z,19.6000
2023-05-02T10:38:57.589Z,19.6308
2023-05-02T10:39:58.984Z,19.3846
2023-05-02T10:41:00.337Z,19.1231
2023-05-02T10:42:01.759Z,19.0000
2023-05-02T10:43:03.187Z,19.8000
2023-05-02T10:44:04.676Z,19.7846
2023-05-02T10:45:06.025Z,19.4615
2023-05-02T10:46:07.478Z,20.0000
2023-05-02T10:47:08.834Z,19.9692
2023-05-02T10:48:10.402Z,19.9231
2023-05-02T10:49:11.713Z,19.4769
2023-05-02T10:50:13.167Z,19.5231
2023-05-02T10:51:14.554Z,19.7077
2023-05-02T10:52:15.888Z,20.0769
2023-05-02T10:53:17.395Z,19.9077
2023-05-02T10:54:18.858Z,18.8923
2023-05-02T10:55:20.214Z,19.4769
2023-05-02T10:56:21.679Z,19.6308
2023-05-02T10:57:23.029Z,19.7538
2023-05-02T10:58:24.559Z,19.6615
2023-05-02T10:59:25.924Z,19.7846
2023-05-02T11:00:27.398Z,19.7846
2023-05-02T11:01:28.858Z,19.7846
2023-05-02T11:02:30.227Z,19.6923
2023-05-02T11:03:31.620Z,19.9385
2023-05-02T11:04:33.056Z,20.1077
2023-05-02T11:05:34.427Z,20.2000
2023-05-02T11:06:35.908Z,20.2154
2023-05-02T11:07:37.232Z,20.2462
2023-05-02T11:08:38.617Z,20.9538
2023-05-02T11:09:40.128Z,20.6154
2023-05-02T11:10:41.575Z,20.0154
2023-05-02T11:11:43.299Z,19.8000
2023-05-02T11:12:44.309Z,20.0154
2023-05-02T11:13:45.778Z,20.0462
2023-05-02T11:14:47.314Z,20.1692
2023-05-02T11:15:48.678Z,20.6308
2023-05-02T11:16:50.085Z,20.3538
2023-05-02T11:17:51.448Z,20.0000
2023-05-02T11:18:52.875Z,19.1538
2023-05-02T11:19:54.318Z,18.6462
2023-05-02T11:20:55.765Z,18.6308
2023-05-02T11:21:57.119Z,18.5385
2023-05-02T11:22:58.604Z,18.6462
2023-05-02T11:23:59.933Z,19.6923
2023-05-02T11:25:01.748Z,20.5692
2023-05-02T11:26:02.859Z,19.6923
2023-05-02T11:27:04.245Z,20.0308
2023-05-02T11:28:05.681Z,20.9538
2023-05-02T11:29:07.090Z,21.0462
2023-05-02T11:30:08.491Z,20.9231
2023-05-02T11:31:09.974Z,20.3538
2023-05-02T11:32:11.348Z,19.8923
2023-05-02T11:33:12.808Z,20.0615
2023-05-02T11:34:14.141Z,19.7692
2023-05-02T11:35:15.612Z,19.4769
2023-05-02T11:36:17.152Z,19.6923
2023-05-02T11:37:18.449Z,19.6769
2023-05-02T11:38:19.878Z,20.2308
2023-05-02T11:39:21.302Z,19.8308
2023-05-02T11:40:22.722Z,19.3692
2023-05-02T11:41:24.195Z,19.6923
2023-05-02T11:42:25.554Z,19.6923
2023-05-02T11:43:28.165Z,19.3846
2023-05-02T11:44:28.360Z,19.2462
2023-05-02T11:45:29.884Z,20.1846
2023-05-02T11:46:31.340Z,20.4923
2023-05-02T11:47:32.762Z,19.7538
2023-05-02T11:48:34.161Z,19.3385
2023-05-02T11:49:35.527Z,19.5231
2023-05-02T11:50:37.728Z,18.8308
2023-05-02T11:51:38.426Z,19.3077
2023-05-02T11:52:39.746Z,19.2923
2023-05-02T11:53:41.250Z,18.9692
2023-05-02T11:54:42.613Z,19.2769
2023-05-02T11:55:44.022Z,18.6923
2023-05-02T11:56:45.510Z,19.4615
2023-05-02T11:57:46.977Z,18.8000
2023-05-02T11:58:48.288Z,19.8308
2023-05-02T11:59:49.758Z,20.3231
2023-05-02T12:00:51.147Z,20.5231
2023-05-02T12:01:52.625Z,20.4000
2023-05-02T12:02:54.064Z,20.4154
2023-05-02T12:03:55.531Z,19.8308
2023-05-02T12:04:56.811Z,19.8615
2023-05-02T12:05:58.285Z,19.3538
2023-05-02T12:06:59.708Z,19.4769
2023-05-02T12:08:01.180Z,19.3846
2023-05-02T12:09:02.493Z,19.4769
2023-05-02T12:10:03.974Z,19.9077
2023-05-02T12:11:05.344Z,20.2000
2023-05-02T12:12:06.852Z,19.5538
2023-05-02T12:13:10.103Z,19.4154
2023-05-02T12:14:09.633Z,18.9692
2023-05-02T12:15:11.134Z,18.0154
2023-05-02T12:16:12.618Z,18.8462
2023-05-02T12:17:13.931Z,18.6154
2023-05-02T12:18:15.395Z,19.9538
2023-05-02T12:19:16.823Z,18.9077
2023-05-02T12:20:18.295Z,19.9846
2023-05-02T12:21:19.636Z,19.8615
2023-05-02T12:22:21.121Z,19.6308
2023-05-02T12:23:22.505Z,19.2923